sensor_id;sensor_type;location;lat;lon;timestamp;P1;durP1;ratioP1;P2;durP2;ratioP2
12654;SDS011;6392;44.644;11.448;2023-02-27T00:01:35;3.43;;;1.30;;
12654;SDS011;6392;44.644;11.448;2023-02-27T00:04:03;3.13;;;1.23;;
12654;SDS011;6392;44.644;11.448;2023-02-27T00:06:30;2.10;;;1.37;;
12654;SDS011;6392;44.644;11.448;2023-02-27T00:08:57;2.03;;;1.10;;
12654;SDS011;6392;44.644;11.448;2023-02-27T00:11:24;2.13;;;1.10;;
12654;SDS011;6392;44.644;11.448;2023-02-27T00:13:51;3.87;;;1.03;;
12654;SDS011;6392;44.644;11.448;2023-02-27T00:16:18;3.50;;;1.17;;
12654;SDS011;6392;44.644;11.448;2023-02-27T00:18:46;5.17;;;0.93;;
12654;SDS011;6392;44.644;11.448;2023-02-27T00:21:13;1.50;;;0.80;;
12654;SDS011;6392;44.644;11.448;2023-02-27T00:23:40;4.60;;;1.10;;
12654;SDS011;6392;44.644;11.448;2023-02-27T00:26:07;4.67;;;1.10;;
12654;SDS011;6392;44.644;11.448;2023-02-27T00:28:34;2.77;;;1.10;;
12654;SDS011;6392;44.644;11.448;2023-02-27T00:31:01;1.13;;;0.97;;
12654;SDS011;6392;44.644;11.448;2023-02-27T00:33:28;2.10;;;1.27;;
12654;SDS011;6392;44.644;11.448;2023-02-27T00:35:57;4.47;;;1.20;;
12654;SDS011;6392;44.644;11.448;2023-02-27T00:38:25;2.20;;;1.00;;
12654;SDS011;6392;44.644;11.448;2023-02-27T00:40:53;4.33;;;1.07;;
12654;SDS011;6392;44.644;11.448;2023-02-27T00:43:20;3.83;;;1.30;;
12654;SDS011;6392;44.644;11.448;2023-02-27T00:45:47;1.60;;;0.93;;
12654;SDS011;6392;44.644;11.448;2023-02-27T00:48:14;1.80;;;1.13;;
12654;SDS011;6392;44.644;11.448;2023-02-27T00:50:42;2.90;;;1.10;;
12654;SDS011;6392;44.644;11.448;2023-02-27T00:53:11;4.80;;;1.60;;
12654;SDS011;6392;44.644;11.448;2023-02-27T00:55:38;5.20;;;1.30;;
12654;SDS011;6392;44.644;11.448;2023-02-27T00:58:04;0.90;;;0.70;;
12654;SDS011;6392;44.644;11.448;2023-02-27T01:00:31;3.53;;;1.00;;
12654;SDS011;6392;44.644;11.448;2023-02-27T01:02:58;2.30;;;0.90;;
12654;SDS011;6392;44.644;11.448;2023-02-27T01:05:26;7.00;;;1.10;;
12654;SDS011;6392;44.644;11.448;2023-02-27T01:07:53;2.57;;;1.10;;
12654;SDS011;6392;44.644;11.448;2023-02-27T01:10:21;3.30;;;1.30;;
12654;SDS011;6392;44.644;11.448;2023-02-27T01:12:49;4.10;;;1.43;;
12654;SDS011;6392;44.644;11.448;2023-02-27T01:15:16;5.53;;;1.20;;
12654;SDS011;6392;44.644;11.448;2023-02-27T01:17:43;2.40;;;1.10;;
12654;SDS011;6392;44.644;11.448;2023-02-27T01:20:12;1.10;;;0.93;;
12654;SDS011;6392;44.644;11.448;2023-02-27T01:22:39;4.57;;;1.07;;
12654;SDS011;6392;44.644;11.448;2023-02-27T01:25:06;4.33;;;1.20;;
12654;SDS011;6392;44.644;11.448;2023-02-27T01:27:35;5.30;;;1.20;;
12654;SDS011;6392;44.644;11.448;2023-02-27T01:30:02;3.70;;;0.87;;
12654;SDS011;6392;44.644;11.448;2023-02-27T01:32:31;3.13;;;1.00;;
12654;SDS011;6392;44.644;11.448;2023-02-27T01:34:58;3.87;;;1.03;;
12654;SDS011;6392;44.644;11.448;2023-02-27T01:37:25;3.53;;;1.20;;
12654;SDS011;6392;44.644;11.448;2023-02-27T01:39:52;5.13;;;1.30;;
12654;SDS011;6392;44.644;11.448;2023-02-27T01:42:20;3.80;;;1.00;;
12654;SDS011;6392;44.644;11.448;2023-02-27T01:45:14;5.23;;;1.20;;
12654;SDS011;6392;44.644;11.448;2023-02-27T01:47:52;4.27;;;0.90;;
12654;SDS011;6392;44.644;11.448;2023-02-27T01:50:21;1.47;;;1.10;;
12654;SDS011;6392;44.644;11.448;2023-02-27T01:52:52;4.17;;;1.53;;
12654;SDS011;6392;44.644;11.448;2023-02-27T01:55:22;5.63;;;1.40;;
12654;SDS011;6392;44.644;11.448;2023-02-27T01:57:51;2.07;;;1.00;;
12654;SDS011;6392;44.644;11.448;2023-02-27T02:00:20;4.57;;;1.03;;
12654;SDS011;6392;44.644;11.448;2023-02-27T02:02:49;6.43;;;1.27;;
12654;SDS011;6392;44.644;11.448;2023-02-27T02:05:22;3.03;;;1.20;;
12654;SDS011;6392;44.644;11.448;2023-02-27T02:07:49;2.80;;;1.00;;
12654;SDS011;6392;44.644;11.448;2023-02-27T02:10:17;2.87;;;1.30;;
12654;SDS011;6392;44.644;11.448;2023-02-27T02:12:47;5.43;;;1.67;;
12654;SDS011;6392;44.644;11.448;2023-02-27T02:15:15;3.37;;;1.13;;
12654;SDS011;6392;44.644;11.448;2023-02-27T02:17:47;4.23;;;1.43;;
12654;SDS011;6392;44.644;11.448;2023-02-27T02:20:36;4.30;;;1.63;;
12654;SDS011;6392;44.644;11.448;2023-02-27T02:26:59;4.57;;;1.00;;
12654;SDS011;6392;44.644;11.448;2023-02-27T02:35:42;2.07;;;0.90;;
12654;SDS011;6392;44.644;11.448;2023-02-27T02:38:45;1.73;;;0.90;;
12654;SDS011;6392;44.644;11.448;2023-02-27T02:41:25;4.20;;;1.07;;
12654;SDS011;6392;44.644;11.448;2023-02-27T02:44:03;3.70;;;1.10;;
12654;SDS011;6392;44.644;11.448;2023-02-27T02:46:39;2.03;;;1.40;;
12654;SDS011;6392;44.644;11.448;2023-02-27T02:49:12;4.17;;;0.93;;
12654;SDS011;6392;44.644;11.448;2023-02-27T02:51:46;3.90;;;1.47;;
12654;SDS011;6392;44.644;11.448;2023-02-27T02:54:21;3.63;;;1.00;;
12654;SDS011;6392;44.644;11.448;2023-02-27T02:56:56;5.47;;;1.47;;
12654;SDS011;6392;44.644;11.448;2023-02-27T02:59:29;4.83;;;1.20;;
12654;SDS011;6392;44.644;11.448;2023-02-27T03:02:01;5.73;;;1.47;;
12654;SDS011;6392;44.644;11.448;2023-02-27T03:04:32;4.20;;;1.00;;
12654;SDS011;6392;44.644;11.448;2023-02-27T03:07:05;2.87;;;1.27;;
12654;SDS011;6392;44.644;11.448;2023-02-27T03:09:40;3.17;;;1.30;;
12654;SDS011;6392;44.644;11.448;2023-02-27T03:12:11;2.93;;;1.00;;
12654;SDS011;6392;44.644;11.448;2023-02-27T03:14:45;3.80;;;1.00;;
12654;SDS011;6392;44.644;11.448;2023-02-27T03:17:18;3.80;;;1.63;;
12654;SDS011;6392;44.644;11.448;2023-02-27T03:19:52;3.77;;;0.93;;
12654;SDS011;6392;44.644;11.448;2023-02-27T03:22:24;4.33;;;1.73;;
12654;SDS011;6392;44.644;11.448;2023-02-27T03:24:57;4.70;;;1.40;;
12654;SDS011;6392;44.644;11.448;2023-02-27T03:27:27;4.20;;;1.20;;
12654;SDS011;6392;44.644;11.448;2023-02-27T03:30:00;3.13;;;1.20;;
12654;SDS011;6392;44.644;11.448;2023-02-27T03:32:33;2.80;;;1.00;;
12654;SDS011;6392;44.644;11.448;2023-02-27T03:35:04;3.93;;;1.53;;
12654;SDS011;6392;44.644;11.448;2023-02-27T03:37:34;3.33;;;1.33;;
12654;SDS011;6392;44.644;11.448;2023-02-27T03:40:12;3.83;;;1.27;;
12654;SDS011;6392;44.644;11.448;2023-02-27T03:42:45;3.40;;;1.07;;
12654;SDS011;6392;44.644;11.448;2023-02-27T03:45:20;4.90;;;1.30;;
12654;SDS011;6392;44.644;11.448;2023-02-27T03:47:54;3.33;;;1.40;;
12654;SDS011;6392;44.644;11.448;2023-02-27T03:50:21;2.27;;;1.30;;
12654;SDS011;6392;44.644;11.448;2023-02-27T03:52:48;2.53;;;1.10;;
12654;SDS011;6392;44.644;11.448;2023-02-27T03:55:18;4.17;;;1.40;;
12654;SDS011;6392;44.644;11.448;2023-02-27T03:57:48;2.90;;;1.30;;
12654;SDS011;6392;44.644;11.448;2023-02-27T04:00:17;1.73;;;1.10;;
12654;SDS011;6392;44.644;11.448;2023-02-27T04:02:46;5.17;;;1.20;;
12654;SDS011;6392;44.644;11.448;2023-02-27T04:05:15;10.37;;;1.60;;
12654;SDS011;6392;44.644;11.448;2023-02-27T04:07:44;3.10;;;1.03;;
12654;SDS011;6392;44.644;11.448;2023-02-27T04:10:29;2.83;;;1.20;;
12654;SDS011;6392;44.644;11.448;2023-02-27T04:19:07;3.67;;;1.30;;
12654;SDS011;6392;44.644;11.448;2023-02-27T04:21:43;3.57;;;1.43;;
12654;SDS011;6392;44.644;11.448;2023-02-27T04:24:19;2.50;;;1.10;;
12654;SDS011;6392;44.644;11.448;2023-02-27T04:27:01;3.37;;;1.37;;
12654;SDS011;6392;44.644;11.448;2023-02-27T04:29:36;3.63;;;1.43;;
12654;SDS011;6392;44.644;11.448;2023-02-27T04:32:14;3.27;;;1.20;;
12654;SDS011;6392;44.644;11.448;2023-02-27T04:34:47;3.73;;;1.20;;
12654;SDS011;6392;44.644;11.448;2023-02-27T04:37:20;4.80;;;1.43;;
12654;SDS011;6392;44.644;11.448;2023-02-27T04:39:52;4.17;;;1.40;;
12654;SDS011;6392;44.644;11.448;2023-02-27T04:42:24;2.57;;;1.20;;
12654;SDS011;6392;44.644;11.448;2023-02-27T04:44:54;3.20;;;1.20;;
12654;SDS011;6392;44.644;11.448;2023-02-27T04:47:25;4.00;;;1.23;;
12654;SDS011;6392;44.644;11.448;2023-02-27T04:49:57;3.67;;;1.50;;
12654;SDS011;6392;44.644;11.448;2023-02-27T04:52:27;5.50;;;1.37;;
12654;SDS011;6392;44.644;11.448;2023-02-27T04:55:01;5.13;;;1.37;;
12654;SDS011;6392;44.644;11.448;2023-02-27T04:57:35;5.40;;;1.33;;
12654;SDS011;6392;44.644;11.448;2023-02-27T05:00:06;3.77;;;1.20;;
12654;SDS011;6392;44.644;11.448;2023-02-27T05:02:39;2.17;;;1.00;;
12654;SDS011;6392;44.644;11.448;2023-02-27T05:05:10;5.73;;;1.23;;
12654;SDS011;6392;44.644;11.448;2023-02-27T05:07:41;2.57;;;1.50;;
12654;SDS011;6392;44.644;11.448;2023-02-27T05:10:13;2.57;;;1.20;;
12654;SDS011;6392;44.644;11.448;2023-02-27T05:12:48;4.17;;;1.30;;
12654;SDS011;6392;44.644;11.448;2023-02-27T05:15:21;4.33;;;1.77;;
12654;SDS011;6392;44.644;11.448;2023-02-27T05:17:54;8.60;;;1.87;;
12654;SDS011;6392;44.644;11.448;2023-02-27T05:20:28;2.80;;;1.13;;
12654;SDS011;6392;44.644;11.448;2023-02-27T05:23:01;5.37;;;1.47;;
12654;SDS011;6392;44.644;11.448;2023-02-27T05:25:36;7.47;;;1.40;;
12654;SDS011;6392;44.644;11.448;2023-02-27T05:28:12;2.30;;;1.00;;
12654;SDS011;6392;44.644;11.448;2023-02-27T05:30:45;4.23;;;2.10;;
12654;SDS011;6392;44.644;11.448;2023-02-27T05:33:19;6.07;;;1.40;;
12654;SDS011;6392;44.644;11.448;2023-02-27T05:35:52;3.40;;;1.30;;
12654;SDS011;6392;44.644;11.448;2023-02-27T05:38:24;2.43;;;1.37;;
12654;SDS011;6392;44.644;11.448;2023-02-27T05:40:57;5.20;;;1.37;;
12654;SDS011;6392;44.644;11.448;2023-02-27T05:43:33;5.50;;;1.57;;
12654;SDS011;6392;44.644;11.448;2023-02-27T05:46:03;4.27;;;1.23;;
12654;SDS011;6392;44.644;11.448;2023-02-27T05:48:33;4.93;;;1.40;;
12654;SDS011;6392;44.644;11.448;2023-02-27T05:51:04;4.20;;;1.40;;
12654;SDS011;6392;44.644;11.448;2023-02-27T05:53:34;3.73;;;1.20;;
12654;SDS011;6392;44.644;11.448;2023-02-27T05:56:06;3.67;;;1.70;;
12654;SDS011;6392;44.644;11.448;2023-02-27T05:58:39;4.97;;;1.57;;
12654;SDS011;6392;44.644;11.448;2023-02-27T06:01:10;3.67;;;1.50;;
12654;SDS011;6392;44.644;11.448;2023-02-27T06:03:38;4.03;;;1.47;;
12654;SDS011;6392;44.644;11.448;2023-02-27T06:06:07;1.37;;;1.10;;
12654;SDS011;6392;44.644;11.448;2023-02-27T06:08:36;5.10;;;1.30;;
12654;SDS011;6392;44.644;11.448;2023-02-27T06:11:04;6.07;;;1.20;;
12654;SDS011;6392;44.644;11.448;2023-02-27T06:13:31;1.73;;;1.50;;
12654;SDS011;6392;44.644;11.448;2023-02-27T06:16:00;3.13;;;1.30;;
12654;SDS011;6392;44.644;11.448;2023-02-27T06:18:27;4.13;;;1.67;;
12654;SDS011;6392;44.644;11.448;2023-02-27T06:20:54;3.67;;;1.50;;
12654;SDS011;6392;44.644;11.448;2023-02-27T06:23:21;2.80;;;1.10;;
12654;SDS011;6392;44.644;11.448;2023-02-27T06:25:48;3.23;;;1.17;;
12654;SDS011;6392;44.644;11.448;2023-02-27T06:28:15;3.73;;;1.47;;
12654;SDS011;6392;44.644;11.448;2023-02-27T06:30:43;4.60;;;1.30;;
12654;SDS011;6392;44.644;11.448;2023-02-27T06:33:11;2.17;;;1.30;;
12654;SDS011;6392;44.644;11.448;2023-02-27T06:35:38;2.07;;;1.13;;
12654;SDS011;6392;44.644;11.448;2023-02-27T06:38:05;5.30;;;1.20;;
12654;SDS011;6392;44.644;11.448;2023-02-27T06:40:34;3.60;;;1.10;;
12654;SDS011;6392;44.644;11.448;2023-02-27T06:43:02;6.30;;;1.10;;
12654;SDS011;6392;44.644;11.448;2023-02-27T06:45:29;3.40;;;1.53;;
12654;SDS011;6392;44.644;11.448;2023-02-27T06:47:56;4.40;;;1.47;;
12654;SDS011;6392;44.644;11.448;2023-02-27T06:50:24;6.23;;;1.40;;
12654;SDS011;6392;44.644;11.448;2023-02-27T06:52:52;7.47;;;1.60;;
12654;SDS011;6392;44.644;11.448;2023-02-27T06:55:19;4.27;;;1.40;;
12654;SDS011;6392;44.644;11.448;2023-02-27T06:57:49;1.73;;;1.10;;
12654;SDS011;6392;44.644;11.448;2023-02-27T07:00:16;3.40;;;1.60;;
12654;SDS011;6392;44.644;11.448;2023-02-27T07:02:44;3.63;;;1.37;;
12654;SDS011;6392;44.644;11.448;2023-02-27T07:05:11;2.90;;;1.23;;
12654;SDS011;6392;44.644;11.448;2023-02-27T07:07:39;6.23;;;1.53;;
12654;SDS011;6392;44.644;11.448;2023-02-27T07:10:08;2.90;;;1.70;;
12654;SDS011;6392;44.644;11.448;2023-02-27T07:12:37;4.10;;;1.57;;
12654;SDS011;6392;44.644;11.448;2023-02-27T07:15:04;5.83;;;1.90;;
12654;SDS011;6392;44.644;11.448;2023-02-27T07:17:32;2.47;;;1.23;;
12654;SDS011;6392;44.644;11.448;2023-02-27T07:19:59;5.00;;;1.57;;
12654;SDS011;6392;44.644;11.448;2023-02-27T07:22:26;5.17;;;1.47;;
12654;SDS011;6392;44.644;11.448;2023-02-27T07:24:55;3.23;;;1.70;;
12654;SDS011;6392;44.644;11.448;2023-02-27T07:27:22;3.73;;;1.37;;
12654;SDS011;6392;44.644;11.448;2023-02-27T07:29:49;3.70;;;1.60;;
12654;SDS011;6392;44.644;11.448;2023-02-27T07:32:16;4.67;;;1.60;;
12654;SDS011;6392;44.644;11.448;2023-02-27T07:34:43;8.63;;;1.67;;
12654;SDS011;6392;44.644;11.448;2023-02-27T07:37:10;3.27;;;1.53;;
12654;SDS011;6392;44.644;11.448;2023-02-27T07:39:37;6.30;;;1.70;;
12654;SDS011;6392;44.644;11.448;2023-02-27T07:42:06;2.27;;;1.60;;
12654;SDS011;6392;44.644;11.448;2023-02-27T07:44:33;5.60;;;2.43;;
12654;SDS011;6392;44.644;11.448;2023-02-27T07:47:00;4.87;;;1.67;;
12654;SDS011;6392;44.644;11.448;2023-02-27T07:49:27;3.63;;;1.60;;
12654;SDS011;6392;44.644;11.448;2023-02-27T07:51:54;4.17;;;1.70;;
12654;SDS011;6392;44.644;11.448;2023-02-27T07:54:21;4.20;;;2.47;;
12654;SDS011;6392;44.644;11.448;2023-02-27T07:56:48;3.23;;;1.50;;
12654;SDS011;6392;44.644;11.448;2023-02-27T07:59:16;2.73;;;1.20;;
12654;SDS011;6392;44.644;11.448;2023-02-27T08:01:43;2.27;;;1.27;;
12654;SDS011;6392;44.644;11.448;2023-02-27T08:04:10;4.83;;;1.20;;
12654;SDS011;6392;44.644;11.448;2023-02-27T08:06:37;2.73;;;1.30;;
12654;SDS011;6392;44.644;11.448;2023-02-27T08:09:04;1.60;;;1.20;;
12654;SDS011;6392;44.644;11.448;2023-02-27T08:11:31;4.10;;;1.17;;
12654;SDS011;6392;44.644;11.448;2023-02-27T08:13:58;2.27;;;1.43;;
12654;SDS011;6392;44.644;11.448;2023-02-27T08:16:27;4.70;;;1.63;;
12654;SDS011;6392;44.644;11.448;2023-02-27T08:18:55;4.33;;;1.77;;
12654;SDS011;6392;44.644;11.448;2023-02-27T08:21:22;2.67;;;1.80;;
12654;SDS011;6392;44.644;11.448;2023-02-27T08:23:49;3.77;;;2.13;;
12654;SDS011;6392;44.644;11.448;2023-02-27T08:26:16;4.77;;;1.40;;
12654;SDS011;6392;44.644;11.448;2023-02-27T08:28:44;6.50;;;1.57;;
12654;SDS011;6392;44.644;11.448;2023-02-27T08:31:11;4.40;;;1.87;;
12654;SDS011;6392;44.644;11.448;2023-02-27T08:33:40;3.17;;;1.77;;
12654;SDS011;6392;44.644;11.448;2023-02-27T08:36:07;4.43;;;1.60;;
12654;SDS011;6392;44.644;11.448;2023-02-27T08:38:34;3.93;;;1.37;;
12654;SDS011;6392;44.644;11.448;2023-02-27T08:41:01;3.53;;;1.57;;
12654;SDS011;6392;44.644;11.448;2023-02-27T08:43:28;4.67;;;2.13;;
12654;SDS011;6392;44.644;11.448;2023-02-27T08:45:56;4.03;;;1.73;;
12654;SDS011;6392;44.644;11.448;2023-02-27T08:48:23;2.90;;;1.47;;
12654;SDS011;6392;44.644;11.448;2023-02-27T08:50:51;8.40;;;1.90;;
12654;SDS011;6392;44.644;11.448;2023-02-27T08:53:18;5.90;;;2.53;;
12654;SDS011;6392;44.644;11.448;2023-02-27T08:55:47;7.23;;;1.70;;
12654;SDS011;6392;44.644;11.448;2023-02-27T08:58:15;4.70;;;2.20;;
12654;SDS011;6392;44.644;11.448;2023-02-27T09:00:42;4.83;;;1.80;;
12654;SDS011;6392;44.644;11.448;2023-02-27T09:03:09;5.07;;;1.60;;
12654;SDS011;6392;44.644;11.448;2023-02-27T09:05:36;7.23;;;2.13;;
12654;SDS011;6392;44.644;11.448;2023-02-27T09:08:05;2.53;;;1.60;;
12654;SDS011;6392;44.644;11.448;2023-02-27T09:10:32;4.10;;;1.30;;
12654;SDS011;6392;44.644;11.448;2023-02-27T09:13:00;3.33;;;1.80;;
12654;SDS011;6392;44.644;11.448;2023-02-27T09:15:27;4.10;;;1.50;;
12654;SDS011;6392;44.644;11.448;2023-02-27T09:17:55;1.70;;;1.47;;
12654;SDS011;6392;44.644;11.448;2023-02-27T09:20:27;4.17;;;2.17;;
12654;SDS011;6392;44.644;11.448;2023-02-27T09:22:55;2.50;;;1.57;;
12654;SDS011;6392;44.644;11.448;2023-02-27T09:25:25;7.23;;;1.73;;
12654;SDS011;6392;44.644;11.448;2023-02-27T09:27:52;2.60;;;1.67;;
12654;SDS011;6392;44.644;11.448;2023-02-27T09:30:19;3.77;;;1.80;;
12654;SDS011;6392;44.644;11.448;2023-02-27T09:32:47;3.93;;;1.30;;
12654;SDS011;6392;44.644;11.448;2023-02-27T09:35:14;2.40;;;1.43;;
12654;SDS011;6392;44.644;11.448;2023-02-27T09:37:41;2.83;;;1.57;;
12654;SDS011;6392;44.644;11.448;2023-02-27T09:40:10;3.60;;;1.70;;
12654;SDS011;6392;44.644;11.448;2023-02-27T09:42:46;4.83;;;1.53;;
12654;SDS011;6392;44.644;11.448;2023-02-27T09:45:16;3.97;;;2.00;;
12654;SDS011;6392;44.644;11.448;2023-02-27T09:47:48;3.80;;;2.07;;
12654;SDS011;6392;44.644;11.448;2023-02-27T09:50:26;2.33;;;1.50;;
12654;SDS011;6392;44.644;11.448;2023-02-27T09:52:58;6.37;;;2.00;;
12654;SDS011;6392;44.644;11.448;2023-02-27T09:55:26;3.40;;;1.63;;
12654;SDS011;6392;44.644;11.448;2023-02-27T09:58:00;3.07;;;1.63;;
12654;SDS011;6392;44.644;11.448;2023-02-27T10:00:42;7.37;;;2.17;;
12654;SDS011;6392;44.644;11.448;2023-02-27T10:03:17;3.47;;;1.80;;
12654;SDS011;6392;44.644;11.448;2023-02-27T10:06:04;3.50;;;2.03;;
12654;SDS011;6392;44.644;11.448;2023-02-27T10:08:43;3.70;;;2.17;;
12654;SDS011;6392;44.644;11.448;2023-02-27T10:11:17;4.07;;;2.10;;
12654;SDS011;6392;44.644;11.448;2023-02-27T10:13:55;2.10;;;1.77;;
12654;SDS011;6392;44.644;11.448;2023-02-27T10:16:25;2.13;;;1.27;;
12654;SDS011;6392;44.644;11.448;2023-02-27T10:18:54;3.13;;;1.60;;
12654;SDS011;6392;44.644;11.448;2023-02-27T10:21:25;2.67;;;1.70;;
12654;SDS011;6392;44.644;11.448;2023-02-27T10:23:59;3.47;;;2.10;;
12654;SDS011;6392;44.644;11.448;2023-02-27T10:26:32;2.93;;;1.90;;
12654;SDS011;6392;44.644;11.448;2023-02-27T10:29:12;6.60;;;2.00;;
12654;SDS011;6392;44.644;11.448;2023-02-27T10:31:42;3.30;;;1.83;;
12654;SDS011;6392;44.644;11.448;2023-02-27T10:34:14;4.67;;;1.80;;
12654;SDS011;6392;44.644;11.448;2023-02-27T10:36:41;3.43;;;1.97;;
12654;SDS011;6392;44.644;11.448;2023-02-27T10:39:10;3.83;;;1.90;;
12654;SDS011;6392;44.644;11.448;2023-02-27T10:41:41;3.40;;;1.83;;
12654;SDS011;6392;44.644;11.448;2023-02-27T10:44:13;3.90;;;2.00;;
12654;SDS011;6392;44.644;11.448;2023-02-27T10:46:42;3.17;;;1.97;;
12654;SDS011;6392;44.644;11.448;2023-02-27T10:49:12;2.73;;;1.80;;
12654;SDS011;6392;44.644;11.448;2023-02-27T10:51:41;3.40;;;1.90;;
12654;SDS011;6392;44.644;11.448;2023-02-27T10:54:17;5.50;;;2.07;;
12654;SDS011;6392;44.644;11.448;2023-02-27T10:56:48;4.97;;;1.77;;
12654;SDS011;6392;44.644;11.448;2023-02-27T10:59:20;4.10;;;2.33;;
12654;SDS011;6392;44.644;11.448;2023-02-27T11:01:50;4.27;;;1.73;;
12654;SDS011;6392;44.644;11.448;2023-02-27T11:04:22;2.80;;;1.77;;
12654;SDS011;6392;44.644;11.448;2023-02-27T11:06:52;4.63;;;2.07;;
12654;SDS011;6392;44.644;11.448;2023-02-27T11:09:20;3.40;;;1.87;;
12654;SDS011;6392;44.644;11.448;2023-02-27T11:11:49;6.10;;;2.00;;
12654;SDS011;6392;44.644;11.448;2023-02-27T11:14:24;3.07;;;2.10;;
12654;SDS011;6392;44.644;11.448;2023-02-27T11:16:54;1.87;;;1.50;;
12654;SDS011;6392;44.644;11.448;2023-02-27T11:19:23;4.20;;;2.30;;
12654;SDS011;6392;44.644;11.448;2023-02-27T11:21:58;2.13;;;1.50;;
12654;SDS011;6392;44.644;11.448;2023-02-27T11:24:30;2.53;;;1.57;;
12654;SDS011;6392;44.644;11.448;2023-02-27T11:27:00;1.97;;;1.30;;
12654;SDS011;6392;44.644;11.448;2023-02-27T11:29:30;2.33;;;1.70;;
12654;SDS011;6392;44.644;11.448;2023-02-27T11:32:01;4.27;;;2.03;;
12654;SDS011;6392;44.644;11.448;2023-02-27T11:34:31;2.63;;;1.60;;
12654;SDS011;6392;44.644;11.448;2023-02-27T11:37:02;6.30;;;2.00;;
12654;SDS011;6392;44.644;11.448;2023-02-27T11:39:35;3.00;;;2.10;;
12654;SDS011;6392;44.644;11.448;2023-02-27T11:42:15;2.50;;;1.60;;
12654;SDS011;6392;44.644;11.448;2023-02-27T11:44:50;3.33;;;1.97;;
12654;SDS011;6392;44.644;11.448;2023-02-27T11:47:27;2.30;;;1.70;;
12654;SDS011;6392;44.644;11.448;2023-02-27T11:50:07;3.13;;;2.00;;
12654;SDS011;6392;44.644;11.448;2023-02-27T11:52:58;3.40;;;1.90;;
12654;SDS011;6392;44.644;11.448;2023-02-27T11:55:33;2.20;;;1.70;;
12654;SDS011;6392;44.644;11.448;2023-02-27T11:58:03;2.83;;;1.73;;
12654;SDS011;6392;44.644;11.448;2023-02-27T12:00:39;2.60;;;1.90;;
12654;SDS011;6392;44.644;11.448;2023-02-27T12:03:12;5.20;;;1.90;;
12654;SDS011;6392;44.644;11.448;2023-02-27T12:05:45;3.80;;;1.60;;
12654;SDS011;6392;44.644;11.448;2023-02-27T12:08:15;5.00;;;1.83;;
12654;SDS011;6392;44.644;11.448;2023-02-27T12:10:58;2.33;;;1.60;;
12654;SDS011;6392;44.644;11.448;2023-02-27T12:13:30;4.87;;;1.90;;
12654;SDS011;6392;44.644;11.448;2023-02-27T12:16:04;5.33;;;1.90;;
12654;SDS011;6392;44.644;11.448;2023-02-27T12:18:40;4.27;;;1.93;;
12654;SDS011;6392;44.644;11.448;2023-02-27T12:21:12;3.37;;;2.20;;
12654;SDS011;6392;44.644;11.448;2023-02-27T12:23:43;2.23;;;1.90;;
12654;SDS011;6392;44.644;11.448;2023-02-27T12:26:16;3.30;;;1.90;;
12654;SDS011;6392;44.644;11.448;2023-02-27T12:28:50;2.57;;;1.93;;
12654;SDS011;6392;44.644;11.448;2023-02-27T12:31:35;3.77;;;1.80;;
12654;SDS011;6392;44.644;11.448;2023-02-27T12:34:13;3.03;;;1.83;;
12654;SDS011;6392;44.644;11.448;2023-02-27T12:36:50;7.30;;;2.10;;
12654;SDS011;6392;44.644;11.448;2023-02-27T12:39:19;5.03;;;3.17;;
12654;SDS011;6392;44.644;11.448;2023-02-27T12:42:02;4.80;;;2.40;;
12654;SDS011;6392;44.644;11.448;2023-02-27T12:44:53;2.80;;;1.97;;
12654;SDS011;6392;44.644;11.448;2023-02-27T12:47:33;3.90;;;2.00;;
12654;SDS011;6392;44.644;11.448;2023-02-27T12:50:05;4.43;;;2.10;;
12654;SDS011;6392;44.644;11.448;2023-02-27T12:52:39;3.90;;;2.07;;
12654;SDS011;6392;44.644;11.448;2023-02-27T12:55:25;2.47;;;2.07;;
12654;SDS011;6392;44.644;11.448;2023-02-27T12:58:04;3.97;;;1.90;;
12654;SDS011;6392;44.644;11.448;2023-02-27T13:00:52;4.73;;;1.80;;
12654;SDS011;6392;44.644;11.448;2023-02-27T13:03:27;3.13;;;2.00;;
12654;SDS011;6392;44.644;11.448;2023-02-27T13:06:01;6.33;;;2.50;;
12654;SDS011;6392;44.644;11.448;2023-02-27T13:08:49;6.20;;;2.30;;
12654;SDS011;6392;44.644;11.448;2023-02-27T13:11:34;3.40;;;2.10;;
12654;SDS011;6392;44.644;11.448;2023-02-27T13:14:18;4.47;;;2.17;;
12654;SDS011;6392;44.644;11.448;2023-02-27T13:16:55;7.03;;;2.50;;
12654;SDS011;6392;44.644;11.448;2023-02-27T13:19:30;5.77;;;2.80;;
12654;SDS011;6392;44.644;11.448;2023-02-27T13:22:01;4.30;;;2.20;;
12654;SDS011;6392;44.644;11.448;2023-02-27T13:24:42;4.37;;;2.83;;
12654;SDS011;6392;44.644;11.448;2023-02-27T13:27:14;3.67;;;2.30;;
12654;SDS011;6392;44.644;11.448;2023-02-27T13:29:47;3.87;;;2.47;;
12654;SDS011;6392;44.644;11.448;2023-02-27T13:32:25;5.83;;;2.73;;
12654;SDS011;6392;44.644;11.448;2023-02-27T13:34:58;4.00;;;2.10;;
12654;SDS011;6392;44.644;11.448;2023-02-27T13:37:47;4.50;;;2.37;;
12654;SDS011;6392;44.644;11.448;2023-02-27T13:40:26;2.87;;;2.23;;
12654;SDS011;6392;44.644;11.448;2023-02-27T13:43:00;7.13;;;2.60;;
12654;SDS011;6392;44.644;11.448;2023-02-27T13:45:47;3.83;;;2.60;;
12654;SDS011;6392;44.644;11.448;2023-02-27T13:48:38;4.17;;;2.33;;
12654;SDS011;6392;44.644;11.448;2023-02-27T13:54:28;3.97;;;2.27;;
12654;SDS011;6392;44.644;11.448;2023-02-27T13:57:05;5.87;;;2.57;;
12654;SDS011;6392;44.644;11.448;2023-02-27T13:59:45;5.13;;;2.90;;
12654;SDS011;6392;44.644;11.448;2023-02-27T14:02:27;3.57;;;2.30;;
12654;SDS011;6392;44.644;11.448;2023-02-27T14:05:13;3.20;;;2.30;;
12654;SDS011;6392;44.644;11.448;2023-02-27T14:10:34;5.17;;;2.30;;
12654;SDS011;6392;44.644;11.448;2023-02-27T14:13:02;5.03;;;3.03;;
12654;SDS011;6392;44.644;11.448;2023-02-27T14:15:53;8.13;;;2.40;;
12654;SDS011;6392;44.644;11.448;2023-02-27T14:24:30;3.80;;;2.43;;
12654;SDS011;6392;44.644;11.448;2023-02-27T14:27:04;4.47;;;3.00;;
12654;SDS011;6392;44.644;11.448;2023-02-27T14:29:42;8.33;;;2.90;;
12654;SDS011;6392;44.644;11.448;2023-02-27T14:32:15;6.10;;;2.50;;
12654;SDS011;6392;44.644;11.448;2023-02-27T14:34:44;3.47;;;2.53;;
12654;SDS011;6392;44.644;11.448;2023-02-27T14:37:12;5.17;;;2.50;;
12654;SDS011;6392;44.644;11.448;2023-02-27T14:39:42;7.53;;;2.40;;
12654;SDS011;6392;44.644;11.448;2023-02-27T14:45:10;5.80;;;3.03;;
12654;SDS011;6392;44.644;11.448;2023-02-27T14:47:39;3.50;;;2.63;;
12654;SDS011;6392;44.644;11.448;2023-02-27T14:50:19;5.67;;;2.73;;
12654;SDS011;6392;44.644;11.448;2023-02-27T14:52:48;4.17;;;2.80;;
12654;SDS011;6392;44.644;11.448;2023-02-27T14:55:16;6.63;;;3.20;;
12654;SDS011;6392;44.644;11.448;2023-02-27T14:57:57;5.50;;;2.30;;
12654;SDS011;6392;44.644;11.448;2023-02-27T15:00:32;7.37;;;2.63;;
12654;SDS011;6392;44.644;11.448;2023-02-27T15:03:08;4.37;;;2.43;;
12654;SDS011;6392;44.644;11.448;2023-02-27T15:05:42;6.53;;;2.30;;
12654;SDS011;6392;44.644;11.448;2023-02-27T15:08:13;3.87;;;2.70;;
12654;SDS011;6392;44.644;11.448;2023-02-27T15:10:43;4.33;;;2.57;;
12654;SDS011;6392;44.644;11.448;2023-02-27T15:13:22;6.20;;;2.43;;
12654;SDS011;6392;44.644;11.448;2023-02-27T15:18:44;3.47;;;2.70;;
12654;SDS011;6392;44.644;11.448;2023-02-27T15:21:15;4.80;;;2.67;;
12654;SDS011;6392;44.644;11.448;2023-02-27T15:23:43;4.10;;;2.50;;
12654;SDS011;6392;44.644;11.448;2023-02-27T15:26:19;5.37;;;2.37;;
12654;SDS011;6392;44.644;11.448;2023-02-27T15:28:48;4.97;;;2.33;;
12654;SDS011;6392;44.644;11.448;2023-02-27T15:31:17;7.00;;;2.50;;
12654;SDS011;6392;44.644;11.448;2023-02-27T15:33:45;5.10;;;2.87;;
12654;SDS011;6392;44.644;11.448;2023-02-27T15:36:17;6.77;;;2.33;;
12654;SDS011;6392;44.644;11.448;2023-02-27T15:38:47;3.43;;;2.27;;
12654;SDS011;6392;44.644;11.448;2023-02-27T15:41:30;5.47;;;2.70;;
12654;SDS011;6392;44.644;11.448;2023-02-27T15:43:58;3.77;;;2.90;;
12654;SDS011;6392;44.644;11.448;2023-02-27T15:46:28;4.00;;;2.47;;
12654;SDS011;6392;44.644;11.448;2023-02-27T15:48:58;4.87;;;2.87;;